Terminal Aerodrome Forecast
Issued by NWS Boston, MA

Home | Current Version | Previous Version | Text Only | Print | Product List | Glossary Off
Versions: 1 2 3 4 5 6 7 8 9 10 11 12 13 14 15 16 17 18 19 20 21 22 23
000 FTUS41 KBOX 251132 TAFPVD TAF KPVD 251132Z 2512/2612 16004KT 1/4SM FG OVC002 FM251300 16005KT 2SM BR OVC025 FM251500 17006KT P6SM BKN045 FM251900 16007KT P6SM BKN015 FM260200 20008KT 3SM -SHRA BR OVC008 FM260500 28010G24KT P6SM BKN070=

USA.gov is the U.S. government's official web portal to all federal, state and local government web resources and services.